createdAt,value
2023-03-22T00:02:23.117Z,15.37
2023-03-22T00:04:52.487Z,15.22
2023-03-22T00:07:21.070Z,15.29
2023-03-22T00:09:49.553Z,15.40
2023-03-22T00:12:18.687Z,15.50
2023-03-22T00:14:48.786Z,15.29
2023-03-22T00:17:17.478Z,15.32
2023-03-22T00:19:46.438Z,15.33
2023-03-22T00:22:16.207Z,15.36
2023-03-22T00:24:44.735Z,15.26
2023-03-22T00:27:13.288Z,15.30
2023-03-22T00:29:42.649Z,15.22
2023-03-22T00:32:11.292Z,15.24
2023-03-22T00:34:39.813Z,15.17
2023-03-22T00:37:08.312Z,15.21
2023-03-22T00:39:36.792Z,15.21
2023-03-22T00:42:06.195Z,15.15
2023-03-22T00:44:34.705Z,15.08
2023-03-22T00:47:03.243Z,15.11
2023-03-22T00:49:31.678Z,15.04
2023-03-22T00:52:00.156Z,15.02
2023-03-22T00:54:28.624Z,15.07
2023-03-22T00:56:57.120Z,15.28
2023-03-22T00:59:25.805Z,15.16
2023-03-22T01:01:55.405Z,15.11
2023-03-22T01:04:26.086Z,15.02
2023-03-22T01:06:59.261Z,15.05
2023-03-22T01:09:30.894Z,15.07
2023-03-22T01:12:01.477Z,15.11
2023-03-22T01:14:31.666Z,15.26
2023-03-22T01:17:00.247Z,15.25
2023-03-22T01:19:28.906Z,15.22
2023-03-22T01:21:57.685Z,15.20
2023-03-22T01:24:26.404Z,15.17
2023-03-22T01:26:54.906Z,15.27
2023-03-22T01:29:24.226Z,15.22
2023-03-22T01:31:52.908Z,15.32
2023-03-22T01:34:22.299Z,15.35
2023-03-22T01:36:51.004Z,15.31
2023-03-22T01:39:19.491Z,15.31
2023-03-22T01:41:48.065Z,15.27
2023-03-22T01:44:22.151Z,15.37
2023-03-22T01:46:51.587Z,15.42
2023-03-22T01:49:40.832Z,15.45
2023-03-22T01:52:14.528Z,15.36
2023-03-22T01:54:49.901Z,15.36
2023-03-22T01:57:18.554Z,15.35
2023-03-22T01:59:47.970Z,15.39
2023-03-22T02:02:22.246Z,15.43
2023-03-22T02:04:50.873Z,15.32
2023-03-22T02:07:27.445Z,15.49
2023-03-22T02:09:56.705Z,15.32
2023-03-22T02:12:50.876Z,15.30
2023-03-22T02:16:06.477Z,15.35
2023-03-22T02:18:40.829Z,15.23
2023-03-22T02:21:32.363Z,15.28
2023-03-22T02:24:23.578Z,15.29
2023-03-22T02:27:10.747Z,15.37
2023-03-22T02:29:47.201Z,15.41
2023-03-22T02:32:43.567Z,15.50
2023-03-22T02:35:30.835Z,15.30
2023-03-22T02:38:26.372Z,15.21
2023-03-22T02:41:18.333Z,15.22
2023-03-22T02:44:09.244Z,15.08
2023-03-22T02:46:59.624Z,15.25
2023-03-22T02:49:40.030Z,15.31
2023-03-22T02:52:19.032Z,15.44
2023-03-22T02:55:08.766Z,15.11
2023-03-22T02:57:50.488Z,15.06
2023-03-22T03:00:19.892Z,15.23
2023-03-22T03:03:00.165Z,15.23
2023-03-22T03:05:32.388Z,15.18
2023-03-22T03:08:02.437Z,15.20
2023-03-22T03:10:31.299Z,15.18
2023-03-22T03:12:59.891Z,15.31
2023-03-22T03:15:28.453Z,15.22
2023-03-22T03:18:26.631Z,15.45
2023-03-22T03:21:17.183Z,15.28
2023-03-22T03:24:16.840Z,14.96
2023-03-22T03:26:53.823Z,15.23
2023-03-22T03:29:31.912Z,15.20
2023-03-22T03:32:19.369Z,15.23
2023-03-22T03:34:57.253Z,15.25
2023-03-22T03:37:39.717Z,15.17
2023-03-22T03:40:16.686Z,15.33
2023-03-22T03:42:50.570Z,15.20
2023-03-22T03:45:19.817Z,15.17
2023-03-22T03:47:56.751Z,15.01
2023-03-22T03:50:26.584Z,14.94
2023-03-22T03:52:56.132Z,14.75
2023-03-22T03:55:27.524Z,14.99
2023-03-22T03:57:56.090Z,15.04
2023-03-22T04:00:24.586Z,14.97
2023-03-22T04:02:53.170Z,14.97
2023-03-22T04:05:21.746Z,14.85
2023-03-22T04:07:50.213Z,14.96
2023-03-22T04:10:19.193Z,14.95
2023-03-22T04:12:47.592Z,14.93
2023-03-22T04:15:16.494Z,14.96
2023-03-22T04:17:46.434Z,14.80
2023-03-22T04:20:15.243Z,14.94
2023-03-22T04:22:46.582Z,14.89
2023-03-22T04:25:18.109Z,14.75
2023-03-22T04:27:51.386Z,15.01
2023-03-22T04:30:20.414Z,14.88
2023-03-22T04:32:50.183Z,14.63
2023-03-22T04:35:18.852Z,14.79
2023-03-22T04:37:48.822Z,14.85
2023-03-22T04:40:17.541Z,14.81
2023-03-22T04:42:46.607Z,14.82
2023-03-22T04:45:15.456Z,14.85
2023-03-22T04:47:44.090Z,14.78
2023-03-22T04:50:12.611Z,14.64
2023-03-22T04:52:41.158Z,14.84
2023-03-22T04:55:09.595Z,14.44
2023-03-22T04:57:38.014Z,14.61
2023-03-22T05:00:08.647Z,14.81
2023-03-22T05:02:41.462Z,14.81
2023-03-22T05:05:10.240Z,14.69
2023-03-22T05:07:39.267Z,14.65
2023-03-22T05:10:08.277Z,14.48
2023-03-22T05:12:36.846Z,14.74
2023-03-22T05:15:06.617Z,14.89
2023-03-22T05:17:35.227Z,14.65
2023-03-22T05:20:09.361Z,14.81
2023-03-22T05:22:41.286Z,14.67
2023-03-22T05:25:11.467Z,14.63
2023-03-22T05:27:39.975Z,14.64
2023-03-22T05:30:09.820Z,14.34
2023-03-22T05:32:42.996Z,14.48
2023-03-22T05:35:11.643Z,14.43
2023-03-22T05:37:40.017Z,14.56
2023-03-22T05:40:11.748Z,14.68
2023-03-22T05:42:40.196Z,14.57
2023-03-22T05:45:09.442Z,14.67
2023-03-22T05:47:39.470Z,14.85
2023-03-22T05:50:10.234Z,14.60
2023-03-22T05:52:38.962Z,14.65
2023-03-22T05:55:07.773Z,14.79
2023-03-22T05:57:36.417Z,14.83
2023-03-22T06:00:13.448Z,15.00
2023-03-22T06:02:47.501Z,14.86
2023-03-22T06:05:17.135Z,14.69
2023-03-22T06:07:45.797Z,14.77
2023-03-22T06:10:15.388Z,14.74
2023-03-22T06:12:44.424Z,14.85
2023-03-22T06:15:13.097Z,14.70
2023-03-22T06:17:42.348Z,14.59
2023-03-22T06:20:12.789Z,14.86
2023-03-22T06:22:41.746Z,14.92
2023-03-22T06:25:11.485Z,14.79
2023-03-22T06:27:39.954Z,15.02
2023-03-22T06:30:08.849Z,15.06
2023-03-22T06:32:37.298Z,15.19
2023-03-22T06:35:06.324Z,15.04
2023-03-22T06:37:34.760Z,14.99
2023-03-22T06:40:03.795Z,15.08
2023-03-22T06:42:33.787Z,14.99
2023-03-22T06:45:02.757Z,15.15
2023-03-22T06:47:31.456Z,15.30
2023-03-22T06:49:59.819Z,15.27
2023-03-22T06:52:28.239Z,14.91
2023-03-22T06:54:56.995Z,14.99
2023-03-22T06:57:25.585Z,14.89
2023-03-22T06:59:54.077Z,15.06
2023-03-22T07:02:22.771Z,14.97
2023-03-22T07:04:51.387Z,15.28
2023-03-22T07:07:19.962Z,15.30
2023-03-22T07:09:49.125Z,15.16
2023-03-22T07:12:18.702Z,15.31
2023-03-22T07:14:47.379Z,15.30
2023-03-22T07:17:15.962Z,15.07
2023-03-22T07:19:44.948Z,15.00
2023-03-22T07:22:13.404Z,15.20
2023-03-22T07:24:53.815Z,15.62
2023-03-22T07:27:25.370Z,15.48
2023-03-22T07:29:54.255Z,15.29
2023-03-22T07:32:22.875Z,15.52
2023-03-22T07:34:51.433Z,15.33
2023-03-22T07:37:19.942Z,15.41
2023-03-22T07:39:48.666Z,15.84
2023-03-22T07:42:17.252Z,15.83
2023-03-22T07:44:47.215Z,14.82
2023-03-22T07:47:18.722Z,15.49
2023-03-22T07:49:49.046Z,15.51
2023-03-22T07:52:17.450Z,15.44
2023-03-22T07:54:46.066Z,15.18
2023-03-22T07:57:14.940Z,15.40
2023-03-22T07:59:44.172Z,15.68
2023-03-22T08:02:12.738Z,15.74
2023-03-22T08:04:41.219Z,15.22
2023-03-22T08:07:09.983Z,15.56
2023-03-22T08:09:38.710Z,15.64
2023-03-22T08:12:07.261Z,15.72
2023-03-22T08:14:37.318Z,15.42
2023-03-22T08:17:06.081Z,15.32
2023-03-22T08:19:35.485Z,15.44
2023-03-22T08:22:03.962Z,15.65
2023-03-22T08:24:32.614Z,15.40
2023-03-22T08:27:01.311Z,15.93
2023-03-22T08:29:29.790Z,16.28
2023-03-22T08:32:02.169Z,15.89
2023-03-22T08:34:31.532Z,16.17
2023-03-22T08:37:00.491Z,16.04
2023-03-22T08:39:28.924Z,16.51
2023-03-22T08:41:57.612Z,16.94
2023-03-22T08:44:26.324Z,17.08
2023-03-22T08:46:54.951Z,16.61
2023-03-22T08:49:23.476Z,16.70
2023-03-22T08:51:51.898Z,16.21
2023-03-22T08:54:20.819Z,16.10
2023-03-22T08:56:50.252Z,16.33
2023-03-22T08:59:18.772Z,15.36
2023-03-22T09:01:47.417Z,16.26
2023-03-22T09:04:16.089Z,16.78
2023-03-22T09:06:45.677Z,16.01
2023-03-22T09:09:14.582Z,16.66
2023-03-22T09:11:43.286Z,16.87
2023-03-22T09:14:11.644Z,16.45
2023-03-22T09:16:40.169Z,16.12
2023-03-22T09:19:09.848Z,16.70
2023-03-22T09:21:38.232Z,17.18
2023-03-22T09:24:07.551Z,17.32
2023-03-22T09:26:36.928Z,16.58
2023-03-22T09:29:05.586Z,17.18
2023-03-22T09:31:34.194Z,16.41
2023-03-22T09:34:02.715Z,16.82
2023-03-22T09:36:32.436Z,16.95
2023-03-22T09:39:01.187Z,16.94
2023-03-22T09:41:38.779Z,16.69
2023-03-22T09:44:14.002Z,16.52
2023-03-22T09:46:47.982Z,16.66
2023-03-22T09:49:19.695Z,16.69
2023-03-22T09:51:53.568Z,16.73
2023-03-22T09:54:37.613Z,16.49
2023-03-22T09:57:32.675Z,17.04
2023-03-22T10:00:12.571Z,17.33
2023-03-22T10:02:53.204Z,16.95
2023-03-22T10:05:40.921Z,16.40
2023-03-22T10:08:28.544Z,16.42
2023-03-22T10:10:59.012Z,16.95
2023-03-22T10:13:54.769Z,16.62
2023-03-22T10:16:32.866Z,16.50
2023-03-22T10:19:13.152Z,16.53
2023-03-22T10:21:41.937Z,17.00
2023-03-22T10:24:17.538Z,17.03
2023-03-22T10:26:48.178Z,17.16
2023-03-22T10:29:28.612Z,16.47
2023-03-22T10:32:14.472Z,16.71
2023-03-22T10:34:43.585Z,16.94
2023-03-22T10:37:22.446Z,16.51
2023-03-22T10:39:55.138Z,16.42
2023-03-22T10:42:27.775Z,16.15
2023-03-22T10:44:58.883Z,16.31
2023-03-22T10:47:42.344Z,16.03
2023-03-22T10:50:21.935Z,16.60
2023-03-22T10:53:00.370Z,16.96
2023-03-22T10:55:28.861Z,16.44
2023-03-22T10:58:21.312Z,16.69
2023-03-22T11:01:00.406Z,16.98
2023-03-22T11:03:28.869Z,16.57
2023-03-22T11:06:13.778Z,16.65
2023-03-22T11:09:26.613Z,15.95
2023-03-22T11:12:01.465Z,15.96
2023-03-22T11:14:42.495Z,15.67
2023-03-22T11:17:20.381Z,16.31
2023-03-22T11:20:07.808Z,16.65
2023-03-22T11:22:42.622Z,16.67
2023-03-22T11:25:18.956Z,16.48
2023-03-22T11:27:57.862Z,16.71
2023-03-22T11:30:28.690Z,16.76
2023-03-22T11:33:13.416Z,16.45
2023-03-22T11:35:45.346Z,16.28
2023-03-22T11:38:39.029Z,16.76
2023-03-22T11:41:29.375Z,16.72
2023-03-22T11:44:13.991Z,16.44
2023-03-22T11:46:51.716Z,16.70
2023-03-22T11:49:24.225Z,16.79
2023-03-22T11:51:54.415Z,15.93
2023-03-22T11:54:30.664Z,16.84
2023-03-22T11:57:03.853Z,16.69
2023-03-22T11:59:44.825Z,16.47
2023-03-22T12:02:20.411Z,16.66
2023-03-22T12:04:53.610Z,16.74
2023-03-22T12:07:24.522Z,16.21
2023-03-22T12:10:01.287Z,16.28
2023-03-22T12:12:33.281Z,16.55
2023-03-22T12:15:20.407Z,16.33
2023-03-22T12:17:56.584Z,15.80
2023-03-22T12:20:42.365Z,16.41
2023-03-22T12:23:20.096Z,16.07
2023-03-22T12:25:55.653Z,16.45
2023-03-22T12:29:06.821Z,16.75
2023-03-22T12:32:00.337Z,16.81
2023-03-22T12:34:55.003Z,16.94
2023-03-22T12:37:35.800Z,17.01
2023-03-22T12:40:21.862Z,16.88
2023-03-22T12:43:00.353Z,16.64
2023-03-22T12:45:32.161Z,17.09
2023-03-22T12:48:10.705Z,17.12
2023-03-22T12:50:48.599Z,16.34
2023-03-22T12:53:19.996Z,16.85
2023-03-22T12:55:49.474Z,17.11
2023-03-22T12:58:24.135Z,16.84
2023-03-22T13:01:11.129Z,16.61
2023-03-22T13:03:46.460Z,17.08
2023-03-22T13:06:34.948Z,17.37
2023-03-22T13:09:09.226Z,17.06
2023-03-22T13:11:37.804Z,17.37
2023-03-22T13:14:06.368Z,17.30
2023-03-22T13:16:48.422Z,17.45
2023-03-22T13:19:29.586Z,17.58
2023-03-22T13:22:36.491Z,17.19
2023-03-22T13:25:14.507Z,17.33
2023-03-22T13:28:03.151Z,17.06
2023-03-22T13:30:49.065Z,16.98
2023-03-22T13:33:20.658Z,17.16
2023-03-22T13:35:58.757Z,17.18
2023-03-22T13:38:32.813Z,17.17
2023-03-22T13:41:17.181Z,17.08
2023-03-22T13:43:54.875Z,16.68
2023-03-22T13:46:23.248Z,16.90
2023-03-22T13:48:53.883Z,16.86
2023-03-22T13:51:25.638Z,17.06
2023-03-22T13:53:57.258Z,16.88
2023-03-22T13:56:47.531Z,17.27
2023-03-22T13:59:31.226Z,17.09
2023-03-22T14:02:12.923Z,17.26
2023-03-22T14:04:53.353Z,16.88
2023-03-22T14:07:45.282Z,17.15
2023-03-22T14:10:16.764Z,16.95
2023-03-22T14:12:48.438Z,16.65
2023-03-22T14:15:20.370Z,15.83
2023-03-22T14:18:08.084Z,16.45
2023-03-22T14:20:39.735Z,15.65
